• Join FlightAware (Why Join?)
  • Login
  • US Flag 
01:43AM EST


 

Airport Tracker/Info


-or-


 

Live Flight TrackerFlight Track Log ✈ N808V ✈ 27-Jul-2014 ✈ KRSW - KLIT

Flight Track Log - Related Links

Times and Time Zones

All times are in EDT time to prevent confusion due to time zone crossing. See the N808V flight status page for this flight to view local times or setup timezone preferences in your user account.

Time Position Orientation Groundspeed Altitude Reporting Facility
EDT Latitude Longitude Course Direction KTS MPH feet Rate Location/Type
01:29PM 26.5394 -81.8939 320° Northwest 250 288 5,300  Level Miami Center
01:30PM 26.6136 -81.8706 16° North 256 295 7,600 2,040 Climbing Miami Center
01:31PM 26.6789 -81.8331 27° Northeast 269 310 9,600 2,040 Climbing Miami Center
01:32PM 26.7486 -81.7822 33° Northeast 276 318 11,900 2,160 Climbing Miami Center
01:33PM 26.8189 -81.7267 35° Northeast 285 328 14,100 1,920 Climbing Miami Center
01:34PM 27.2589 -81.8136 340° North  Level FlightAware Approximate
01:34PM 26.8856 -81.6725 36° Northeast 295 339 16,000  Level Miami Center
01:35PM 26.9578 -81.6108 37° Northeast 302 348 17,800 1,620 Climbing Miami Center
01:36PM 27.0294 -81.5536 35° Northeast 312 359 19,400 1,500 Climbing Miami Center
01:37PM 27.1133 -81.5061 27° Northeast 322 371 21,000 1,560 Climbing Miami Center
01:38PM 27.2081 -81.4889 North 331 381 22,700 1,440 Climbing Miami Center
01:39PM 27.2978 -81.5203 343° North 331 381 24,000 1,260 Climbing Miami Center
01:40PM 27.3822 -81.5794 328° Northwest 338 389 25,400 1,200 Climbing Miami Center
01:41PM 27.4669 -81.6394 328° Northwest 343 395 26,500 960 Climbing Miami Center
01:42PM 27.5472 -81.6969 328° Northwest 348 400 27,500 1,080 Climbing Miami Center
01:43PM 27.6347 -81.7597 328° Northwest 353 406 28,800 1,200 Climbing Miami Center
01:44PM 27.7208 -81.8217 328° Northwest 353 406 30,100 1,140 Climbing Miami Center
01:45PM 27.8064 -81.8825 328° Northwest 350 403 31,200 780 Climbing Miami Center
01:46PM 27.8819 -81.9372 327° Northwest 351 404 31,800 420 Climbing Miami Center
01:47PM 27.9569 -81.9903 328° Northwest 355 409 32,000 420 Climbing Jacksonville Center
01:48PM 28.0431 -82.0625 323° Northwest 366 421 32,600 780 Climbing Jacksonville Center
01:49PM 28.1247 -82.1372 321° Northwest 376 433 33,600 900 Climbing Jacksonville Center
01:50PM 28.2086 -82.2119 322° Northwest 376 433 34,500 900 Climbing Jacksonville Center
01:51PM 28.2903 -82.2844 322° Northwest 376 433 35,400 720 Climbing Jacksonville Center
01:52PM 28.3722 -82.3569 322° Northwest 376 433 36,000 300 Climbing Jacksonville Center
01:53PM 28.4558 -82.4322 322° Northwest 376 433 36,000  Level Jacksonville Center
01:54PM 28.5458 -82.5119 322° Northwest 386 444 36,000  Level Jacksonville Center
01:55PM 28.6378 -82.5969 321° Northwest 409 471 36,000  Level Jacksonville Center
01:56PM 28.7342 -82.6867 321° Northwest 415 478 36,000  Level Jacksonville Center
01:57PM 28.8303 -82.7717 322° Northwest 425 489 36,000  Level Jacksonville Center
01:58PM 28.9264 -82.8617 321° Northwest 431 496 36,000  Level Jacksonville Center
01:59PM 29.0203 -82.9447 322° Northwest 431 496 36,000  Level Jacksonville Center
02:00PM 29.1142 -83.0328 321° Northwest 431 496 36,000  Level Jacksonville Center
02:01PM 29.2119 -83.1208 322° Northwest 431 496 36,000  Level Jacksonville Center
02:02PM 29.3036 -83.2069 321° Northwest 431 496 36,000  Level Jacksonville Center
02:03PM 29.4017 -83.2931 323° Northwest 431 496 36,000  Level Jacksonville Center
02:04PM 29.4953 -83.3817 321° Northwest 431 496 36,000  Level Jacksonville Center
02:05PM 29.5908 -83.4706 321° Northwest 437 503 36,000  Level Jacksonville Center
02:06PM 29.6844 -83.5572 321° Northwest 437 503 36,000  Level Jacksonville Center
02:07PM 29.7800 -83.6439 322° Northwest 437 503 36,000  Level Jacksonville Center
02:08PM 29.8753 -83.7333 321° Northwest 437 503 36,000  Level Jacksonville Center
02:09PM 29.9708 -83.8206 322° Northwest 437 503 36,000  Level Jacksonville Center
02:10PM 30.0539 -83.8981 321° Northwest 437 503 36,000  Level Jacksonville Center
02:11PM 30.1469 -83.9881 320° Northwest 437 503 36,000  Level Jacksonville Center
02:12PM 30.2403 -84.0756 321° Northwest 437 503 36,000  Level Jacksonville Center
02:13PM 30.3353 -84.1633 321° Northwest 432 497 36,000  Level Jacksonville Center
02:14PM 30.4117 -84.2656 311° West 427 491 36,000  Level Jacksonville Center
02:15PM 30.4811 -84.3797 305° West 433 498 36,000  Level Jacksonville Center
02:16PM 30.5611 -84.5017 307° West 433 498 36,000  Level Jacksonville Center
02:17PM 30.6203 -84.6136 302° West 443 510 36,000  Level Jacksonville Center
02:18PM 30.6875 -84.7261 305° West 443 510 36,000  Level Jacksonville Center
02:19PM 30.7569 -84.8433 305° West 443 510 36,000  Level Jacksonville Center
02:20PM 30.8239 -84.9586 304° West 443 510 36,000  Level Jacksonville Center
02:21PM 30.8931 -85.0714 306° West 443 510 36,000  Level Jacksonville Center
02:22PM 30.9600 -85.1867 304° West 443 510 36,000  Level Jacksonville Center
02:23PM 31.0289 -85.3022 305° West 438 504 36,000  Level Jacksonville Center
02:24PM 31.0933 -85.4156 304° West 438 504 36,000  Level Jacksonville Center
02:25PM 31.1700 -85.5439 305° West 438 504 36,000  Level Jacksonville Center
02:26PM 31.2364 -85.6625 303° West 438 504 36,000  Level Jacksonville Center
02:27PM 31.3006 -85.7786 303° West 438 504 36,000  Level Jacksonville Center
02:28PM 31.3669 -85.8950 304° West 438 504 36,000  Level Jacksonville Center
02:30PM 31.4650 -86.0594 305° West 440 506 36,000  Level Atlanta Center
02:31PM 31.5300 -86.1756 303° West 440 506 36,000  Level Atlanta Center
02:32PM 31.5989 -86.2917 305° West 440 506 36,000  Level Atlanta Center
02:33PM 31.6633 -86.4056 304° West 440 506 36,000  Level Atlanta Center
02:34PM 31.7300 -86.5269 303° West 440 506 36,000  Level Atlanta Center
02:35PM 31.7689 -86.6575 289° West 432 497 36,000  Level Atlanta Center
02:36PM 31.8097 -86.7956 289° West 437 503 36,000  Level Atlanta Center
02:37PM 31.8589 -86.9267 294° West 442 509 36,000  Level Atlanta Center
02:38PM 31.9272 -87.0414 305° West 429 494 36,000  Level Atlanta Center
02:39PM 31.9992 -87.1661 304° West 429 494 36,000  Level Atlanta Center
02:40PM 32.0650 -87.2836 303° West 429 494 36,000  Level Atlanta Center
02:41PM 32.1308 -87.3989 304° West 429 494 36,000  Level Atlanta Center
02:42PM 32.1986 -87.5167 304° West 434 499 36,000  Level Atlanta Center
02:43PM 32.2703 -87.6350 306° West 434 499 36,000  Level Atlanta Center
02:43PM 32.3069 -87.7006 304° West 429 494 36,000  Level Memphis Center
02:45PM 32.3869 -87.8411 304° West 430 495 36,000  Level Memphis Center
02:46PM 32.4533 -87.9578 304° West 430 495 36,000  Level Memphis Center
02:47PM 32.5197 -88.0753 304° West 430 495 36,000  Level Memphis Center
02:48PM 32.5861 -88.1911 304° West 430 495 36,000  Level Memphis Center
02:49PM 32.6506 -88.3072 303° West 429 494 36,000  Level Memphis Center
02:50PM 32.7275 -88.4453 304° West 427 491 36,000  Level Memphis Center
02:51PM 32.7911 -88.5606 303° West 424 488 36,000  Level Memphis Center
02:52PM 32.8547 -88.6753 303° West 422 486 36,000  Level Memphis Center
02:53PM 32.9178 -88.7903 303° West 422 486 36,000  Level Memphis Center
02:54PM 32.9817 -88.9047 304° West 421 484 36,000  Level Memphis Center
02:55PM 33.0581 -89.0442 303° West 421 484 36,000  Level Memphis Center
02:56PM 33.1225 -89.1597 304° West 421 484 36,000  Level Memphis Center
02:57PM 33.1858 -89.2742 303° West 421 484 36,000  Level Memphis Center
02:58PM 33.2489 -89.3903 303° West 421 484 36,000  Level Memphis Center
02:59PM 33.3258 -89.5308 303° West 423 487 36,000  Level Memphis Center
03:00PM 33.3917 -89.6489 304° West 425 489 36,000  Level Memphis Center
03:02PM 33.5172 -89.8850 303° West 426 490 36,000  Level Memphis Center
03:03PM 33.5797 -90.0022 303° West 426 490 36,000 -480 Level Memphis Center
03:04PM 33.6550 -90.1442 303° West 426 490 35,000 -1,440 Descending Memphis Center
03:05PM 33.7206 -90.2678 303° West 436 502 33,100 -1,860 Descending Memphis Center
03:06PM 33.7878 -90.3933 303° West 445 512 31,200 -1,920 Descending Memphis Center
03:07PM 33.8608 -90.5325 302° West 448 516 29,200 -1,980 Descending Memphis Center
03:08PM 33.9281 -90.6592 303° West 449 517 27,200 -1,920 Descending Memphis Center
03:09PM 33.9933 -90.7839 302° West 445 512 25,300 -1,920 Descending Memphis Center
03:10PM 34.0578 -90.9083 302° West 440 506 23,300 -2,100 Descending Memphis Center
03:11PM 34.1211 -91.0300 302° West 432 497 21,000 -2,340 Descending Memphis Center
03:12PM 34.1911 -91.1656 302° West 404 465 18,500 -2,220 Descending Memphis Center
03:13PM 34.2453 -91.2697 302° West 376 433 16,500 -1,980 Descending Memphis Center
03:14PM 34.2725 -91.3264 300° West 348 400 15,500 -1,860 Descending Memphis Center
03:15PM 34.2967 -91.3683 305° West 354 407 14,600 -1,680 Descending Memphis Center
03:15PM 34.3144 -91.4114 297° West 330 380 14,000 -1,680 Descending Memphis Center
03:16PM 34.3436 -91.4633 304° West 336 387 12,900 -1,920 Descending Memphis Center
03:16PM 34.3653 -91.5086 300° West 326 375 12,100 -1,680 Descending Memphis Center
03:17PM 34.3908 -91.5553 304° West 327 376 11,200 -1,620 Descending Memphis Center
03:17PM 34.4069 -91.5914 298° West 289 333 10,500 -1,260 Descending Memphis Center
03:18PM 34.4311 -91.6336 305° West 287 330 9,900 -420 Descending Memphis Center
03:18PM 34.4483 -91.6692 300° West 256 295 10,100  Climbing Memphis Center
03:19PM 34.4772 -91.7247 302° West 271 312 9,900 -540 Descending Memphis Center
03:19PM 34.4983 -91.7539 311° West 275 316 9,500 -1,200 Descending Memphis Center
03:20PM 34.5253 -91.7875 314° West 270 311 8,700 -1,320 Descending Memphis Center
03:20PM 34.5472 -91.8189 310° West 270 311 8,200 -1,260 Descending Memphis Center
03:21PM 34.5733 -91.8525 313° West 265 305 7,400 -1,500 Descending Memphis Center
03:21PM 34.5942 -91.8864 307° West 255 293 6,700 -1,500 Descending Memphis Center
03:22PM 34.6411 -91.9517 311° West 244 281 5,400 -1,260 Descending Memphis Center
03:23PM 34.6703 -91.9914 312° West 247 284 4,600 -1,200 Descending Memphis Center
03:23PM 34.6836 -92.0094 312° West 233 268 4,200 -1,080 Descending Memphis Center
03:24PM 34.7117 -92.0494 310° West 235 270 3,500 -1,140 Descending Memphis Center
03:24PM 34.7258 -92.0675 314° West 220 253 3,100 -1,200 Descending Memphis Center
03:25PM 34.7533 -92.1025 314° West 224 258 2,300 -1,140 Descending Memphis Center
03:25PM 34.7636 -92.1206 305° West 214 246 2,000 -600 Descending Memphis Center
03:26PM 34.7739 -92.1594 288° West 196 226 1,700 -540 Descending Memphis Center
03:26PM 34.7744 -92.1756 272° West 132 152 1,500 -420 Descending Memphis Center
03:27PM 34.7733 -92.2058 267° West 158 182 1,300 -420 Descending Memphis Center
03:27PM 34.7700 -92.2189 253° West 116 133 1,100 -600 Descending Memphis Center
03:28PM 34.7558 -92.2378 228° Southwest 135 155 700 -720 Descending Memphis Center
03:28PM 34.7436 -92.2383 182° South 114 131 400 -1,680 Descending Memphis Center
03:30PM 34.7294 -92.2248 158° South  Level Estimated